createdAt,value
2023-04-16T00:01:27.562Z,79.90
2023-04-16T00:03:54.825Z,80.89
2023-04-16T00:06:23.364Z,80.09
2023-04-16T00:08:51.571Z,80.09
2023-04-16T00:11:18.222Z,80.18
2023-04-16T00:13:44.721Z,79.78
2023-04-16T00:16:11.284Z,77.97
2023-04-16T00:18:37.912Z,78.62
2023-04-16T00:21:04.582Z,79.72
2023-04-16T00:23:31.231Z,79.68
2023-04-16T00:26:00.067Z,79.72
2023-04-16T00:28:27.651Z,79.35
2023-04-16T00:30:55.118Z,79.22
2023-04-16T00:33:21.856Z,78.92
2023-04-16T00:35:48.863Z,79.83
2023-04-16T00:38:15.877Z,79.44
2023-04-16T00:40:42.553Z,79.51
2023-04-16T00:43:09.265Z,79.54
2023-04-16T00:45:36.624Z,79.81
2023-04-16T00:48:04.200Z,79.20
2023-04-16T00:50:31.044Z,76.67
2023-04-16T00:52:58.251Z,77.74
2023-04-16T00:55:24.945Z,78.51
2023-04-16T00:57:51.606Z,79.06
2023-04-16T01:00:19.260Z,79.25
2023-04-16T01:02:46.092Z,78.92
2023-04-16T01:05:13.510Z,81.09
2023-04-16T01:07:40.212Z,81.79
2023-04-16T01:10:12.188Z,82.28
2023-04-16T01:12:38.826Z,82.07
2023-04-16T01:15:05.996Z,80.50
2023-04-16T01:17:32.655Z,82.27
2023-04-16T01:20:02.034Z,81.70
2023-04-16T01:22:29.325Z,82.37
2023-04-16T01:24:55.922Z,82.35
2023-04-16T01:27:22.525Z,82.25
2023-04-16T01:29:49.312Z,81.66
2023-04-16T01:32:15.959Z,82.61
2023-04-16T01:34:42.617Z,82.58
2023-04-16T01:37:09.242Z,81.68
2023-04-16T01:39:35.996Z,81.97
2023-04-16T01:42:02.597Z,80.95
2023-04-16T01:44:29.280Z,81.22
2023-04-16T01:46:56.010Z,82.13
2023-04-16T01:49:23.528Z,81.26
2023-04-16T01:51:50.145Z,80.47
2023-04-16T01:54:16.766Z,81.00
2023-04-16T01:56:43.424Z,81.78
2023-04-16T01:59:10.116Z,80.90
2023-04-16T02:01:37.013Z,81.84
2023-04-16T02:04:04.099Z,81.70
2023-04-16T02:06:31.648Z,82.14
2023-04-16T02:08:58.325Z,82.53
2023-04-16T02:11:24.859Z,83.90
2023-04-16T02:13:51.454Z,84.35
2023-04-16T02:16:18.075Z,82.44
2023-04-16T02:18:44.680Z,82.56
2023-04-16T02:21:11.279Z,83.22
2023-04-16T02:23:41.069Z,83.69
2023-04-16T02:26:07.823Z,82.82
2023-04-16T02:28:34.643Z,83.93
2023-04-16T02:31:01.240Z,85.12
2023-04-16T02:33:27.920Z,84.95
2023-04-16T02:35:54.549Z,83.79
2023-04-16T02:38:21.191Z,83.09
2023-04-16T02:40:47.804Z,85.42
2023-04-16T02:43:14.354Z,85.34
2023-04-16T02:45:41.147Z,84.88
2023-04-16T02:48:09.714Z,84.44
2023-04-16T02:50:36.534Z,85.08
2023-04-16T02:53:04.325Z,85.70
2023-04-16T02:55:31.076Z,85.25
2023-04-16T02:57:57.710Z,83.58
2023-04-16T03:00:24.242Z,83.38
2023-04-16T03:02:50.979Z,82.63
2023-04-16T03:05:17.855Z,84.33
2023-04-16T03:07:44.583Z,83.26
2023-04-16T03:10:12.122Z,83.30
2023-04-16T03:12:39.225Z,83.49
2023-04-16T03:15:06.297Z,83.44
2023-04-16T03:17:32.913Z,85.14
2023-04-16T03:19:59.482Z,85.28
2023-04-16T03:22:26.185Z,85.02
2023-04-16T03:24:52.760Z,85.80
2023-04-16T03:27:19.258Z,86.30
2023-04-16T03:29:45.960Z,85.23
2023-04-16T03:32:12.841Z,85.56
2023-04-16T03:34:39.381Z,85.90
2023-04-16T03:37:06.320Z,85.73
2023-04-16T03:39:34.570Z,85.91
2023-04-16T03:42:02.335Z,85.32
2023-04-16T03:44:29.483Z,85.08
2023-04-16T03:46:56.135Z,85.15
2023-04-16T03:49:22.835Z,84.56
2023-04-16T03:51:49.420Z,84.93
2023-04-16T03:54:16.130Z,85.71
2023-04-16T03:56:43.095Z,84.67
2023-04-16T03:59:10.133Z,85.16
2023-04-16T04:01:36.786Z,85.58
2023-04-16T04:04:03.559Z,85.14
2023-04-16T04:06:30.928Z,84.74
2023-04-16T04:08:57.492Z,83.41
2023-04-16T04:11:24.158Z,82.42
2023-04-16T04:13:50.733Z,82.03
2023-04-16T04:16:17.302Z,82.66
2023-04-16T04:18:44.536Z,81.85
2023-04-16T04:21:11.376Z,81.03
2023-04-16T04:23:38.025Z,81.91
2023-04-16T04:26:05.707Z,83.37
2023-04-16T04:28:33.215Z,82.44
2023-04-16T04:31:00.159Z,80.93
2023-04-16T04:33:27.244Z,82.24
2023-04-16T04:35:54.810Z,82.56
2023-04-16T04:38:25.251Z,83.40
2023-04-16T04:40:52.877Z,82.21
2023-04-16T04:43:20.577Z,83.49
2023-04-16T04:45:47.412Z,83.35
2023-04-16T04:48:14.090Z,83.90
2023-04-16T04:50:41.234Z,84.01
2023-04-16T04:53:10.655Z,82.25
2023-04-16T04:55:38.202Z,83.72
2023-04-16T04:58:07.804Z,84.08
2023-04-16T05:00:35.486Z,84.52
2023-04-16T05:03:03.576Z,84.55
2023-04-16T05:05:30.551Z,84.20
2023-04-16T05:07:57.062Z,84.30
2023-04-16T05:10:23.674Z,85.33
2023-04-16T05:12:50.207Z,84.34
2023-04-16T05:15:17.082Z,84.83
2023-04-16T05:17:43.619Z,84.87
2023-04-16T05:20:10.353Z,83.59
2023-04-16T05:22:36.960Z,83.87
2023-04-16T05:25:03.817Z,84.49
2023-04-16T05:27:30.417Z,84.55
2023-04-16T05:29:56.929Z,84.12
2023-04-16T05:32:26.443Z,84.58
2023-04-16T05:34:52.977Z,84.40
2023-04-16T05:37:19.740Z,85.23
2023-04-16T05:39:46.286Z,86.39
2023-04-16T05:42:12.831Z,87.11
2023-04-16T05:44:40.793Z,85.13
2023-04-16T05:47:09.342Z,85.54
2023-04-16T05:49:39.172Z,84.72
2023-04-16T05:52:06.238Z,84.47
2023-04-16T05:54:32.813Z,85.27
2023-04-16T05:57:01.873Z,85.97
2023-04-16T05:59:29.362Z,85.86
2023-04-16T06:01:56.041Z,86.32
2023-04-16T06:04:22.667Z,85.86
2023-04-16T06:06:49.273Z,85.33
2023-04-16T06:09:16.165Z,85.64
2023-04-16T06:11:42.707Z,85.03
2023-04-16T06:14:09.283Z,85.05
2023-04-16T06:16:35.917Z,84.98
2023-04-16T06:19:02.578Z,82.63
2023-04-16T06:21:29.568Z,81.47
2023-04-16T06:23:56.269Z,81.20
2023-04-16T06:26:22.978Z,80.32
2023-04-16T06:28:50.360Z,82.76
2023-04-16T06:31:17.012Z,83.85
2023-04-16T06:33:43.698Z,84.35
2023-04-16T06:36:11.510Z,83.91
2023-04-16T06:38:38.242Z,84.17
2023-04-16T06:41:04.873Z,83.81
2023-04-16T06:43:33.541Z,83.22
2023-04-16T06:46:00.197Z,83.72
2023-04-16T06:48:27.369Z,84.51
2023-04-16T06:50:55.054Z,84.93
2023-04-16T06:53:21.730Z,82.91
2023-04-16T06:55:48.221Z,83.58
2023-04-16T06:58:14.825Z,83.35
2023-04-16T07:00:41.393Z,83.43
2023-04-16T07:03:08.119Z,83.24
2023-04-16T07:05:34.722Z,83.36
2023-04-16T07:08:01.351Z,83.54
2023-04-16T07:10:27.978Z,83.39
2023-04-16T07:12:54.926Z,83.68
2023-04-16T07:15:21.787Z,82.36
2023-04-16T07:17:48.436Z,81.63
2023-04-16T07:20:15.063Z,82.58
2023-04-16T07:22:41.614Z,82.54
2023-04-16T07:25:08.624Z,82.93
2023-04-16T07:27:35.330Z,81.56
2023-04-16T07:30:01.967Z,81.24
2023-04-16T07:32:28.580Z,81.96
2023-04-16T07:34:55.961Z,80.95
2023-04-16T07:37:22.850Z,79.77
2023-04-16T07:39:49.519Z,80.19
2023-04-16T07:42:16.091Z,79.00
2023-04-16T07:44:42.928Z,80.27
2023-04-16T07:47:09.689Z,80.66
2023-04-16T07:49:36.543Z,81.58
2023-04-16T07:52:03.130Z,78.93
2023-04-16T07:54:29.740Z,79.33
2023-04-16T07:56:56.389Z,77.97
2023-04-16T07:59:24.286Z,80.93
2023-04-16T08:01:53.472Z,80.98
2023-04-16T08:04:25.009Z,79.55
2023-04-16T08:06:52.396Z,80.52
2023-04-16T08:09:23.710Z,80.31
2023-04-16T08:11:50.905Z,78.19
2023-04-16T08:14:17.734Z,78.65
2023-04-16T08:16:44.553Z,79.79
2023-04-16T08:19:11.296Z,80.65
2023-04-16T08:21:38.057Z,79.62
2023-04-16T08:24:04.669Z,79.88
2023-04-16T08:26:31.228Z,77.86
2023-04-16T08:28:57.782Z,78.11
2023-04-16T08:31:24.472Z,77.33
2023-04-16T08:33:51.090Z,78.12
2023-04-16T08:36:17.585Z,79.54
2023-04-16T08:38:44.321Z,79.29
2023-04-16T08:41:13.070Z,78.20
2023-04-16T08:43:44.430Z,76.81
2023-04-16T08:46:12.430Z,77.03
2023-04-16T08:48:42.187Z,78.15
2023-04-16T08:51:10.689Z,75.83
2023-04-16T08:53:47.506Z,74.72
2023-04-16T08:56:15.824Z,72.24
2023-04-16T08:58:42.441Z,76.21
2023-04-16T09:01:09.879Z,75.52
2023-04-16T09:03:36.963Z,73.66
2023-04-16T09:06:04.661Z,71.38
2023-04-16T09:08:32.284Z,75.98
2023-04-16T09:10:59.659Z,77.19
2023-04-16T09:13:26.887Z,79.15
2023-04-16T09:15:54.678Z,76.35
2023-04-16T09:18:21.486Z,76.53
2023-04-16T09:20:49.495Z,78.38
2023-04-16T09:23:16.139Z,75.66
2023-04-16T09:25:42.697Z,75.76
2023-04-16T09:28:11.016Z,76.60
2023-04-16T09:30:37.884Z,78.24
2023-04-16T09:33:23.860Z,75.04
2023-04-16T09:35:53.002Z,75.81
2023-04-16T09:38:21.127Z,75.79
2023-04-16T09:40:47.892Z,78.16
2023-04-16T09:43:16.521Z,77.52
2023-04-16T09:45:54.728Z,75.50
2023-04-16T09:48:29.469Z,76.34
2023-04-16T09:50:56.410Z,75.43
2023-04-16T09:53:31.390Z,73.97
2023-04-16T09:55:59.246Z,75.02
2023-04-16T09:58:26.752Z,74.54
2023-04-16T10:01:01.779Z,72.32
2023-04-16T10:03:32.709Z,71.57
2023-04-16T10:06:20.810Z,70.81
2023-04-16T10:08:56.858Z,70.54
2023-04-16T10:11:24.127Z,70.83
2023-04-16T10:13:51.083Z,70.75
2023-04-16T10:16:18.131Z,70.54
2023-04-16T10:18:46.534Z,71.79
2023-04-16T10:21:13.208Z,69.62
2023-04-16T10:23:40.642Z,72.10
2023-04-16T10:26:07.523Z,73.08
2023-04-16T10:28:35.650Z,70.10
2023-04-16T10:31:09.745Z,68.57
2023-04-16T10:33:39.966Z,69.71
2023-04-16T10:36:13.563Z,69.95
2023-04-16T10:38:48.292Z,67.84
2023-04-16T10:41:15.025Z,65.49
2023-04-16T10:43:49.338Z,65.76
2023-04-16T10:46:34.803Z,65.09
2023-04-16T10:49:03.469Z,68.00
2023-04-16T10:51:33.952Z,70.63
2023-04-16T10:54:10.103Z,69.82
2023-04-16T10:56:37.257Z,69.50
2023-04-16T10:59:10.568Z,67.88
2023-04-16T11:01:42.005Z,67.38
2023-04-16T11:04:39.125Z,70.90
2023-04-16T11:07:14.494Z,66.49
2023-04-16T11:09:46.574Z,67.22
2023-04-16T11:12:20.294Z,68.44
2023-04-16T11:14:55.194Z,67.45
2023-04-16T11:17:22.204Z,66.18
2023-04-16T11:19:49.278Z,69.86
2023-04-16T11:22:17.657Z,69.91
2023-04-16T11:24:45.684Z,69.50
2023-04-16T11:27:16.196Z,68.64
2023-04-16T11:29:44.087Z,68.60
2023-04-16T11:32:20.683Z,70.46
2023-04-16T11:34:47.290Z,69.20
2023-04-16T11:37:14.100Z,71.09
2023-04-16T11:39:52.824Z,68.79
2023-04-16T11:42:22.746Z,68.20
2023-04-16T11:44:57.822Z,71.68
2023-04-16T11:47:24.965Z,70.39
2023-04-16T11:49:51.693Z,67.06
2023-04-16T11:52:27.631Z,66.65
2023-04-16T11:54:54.530Z,65.97
2023-04-16T11:57:31.910Z,64.33
2023-04-16T12:00:02.513Z,63.73
2023-04-16T12:02:41.074Z,66.75
2023-04-16T12:05:28.680Z,67.43
2023-04-16T12:07:55.588Z,66.45
2023-04-16T12:10:22.383Z,66.46
2023-04-16T12:12:49.215Z,67.12
2023-04-16T12:15:15.837Z,66.39
2023-04-16T12:17:42.575Z,66.05
2023-04-16T12:20:17.762Z,67.42
2023-04-16T12:22:49.501Z,67.13
2023-04-16T12:25:17.934Z,66.83
2023-04-16T12:27:56.045Z,65.61
2023-04-16T12:30:24.772Z,68.11
2023-04-16T12:32:55.496Z,66.91
2023-04-16T12:35:34.126Z,67.73
2023-04-16T12:38:00.998Z,66.00
2023-04-16T12:40:27.843Z,66.49
2023-04-16T12:42:54.914Z,66.57
2023-04-16T12:45:22.958Z,65.96
2023-04-16T12:47:50.612Z,64.87
2023-04-16T12:50:17.580Z,64.98
2023-04-16T12:52:44.524Z,66.58
2023-04-16T12:55:13.804Z,66.58
2023-04-16T12:57:41.073Z,64.68
2023-04-16T13:00:08.548Z,64.56
2023-04-16T13:02:35.325Z,64.38
2023-04-16T13:05:02.051Z,64.77
2023-04-16T13:07:29.088Z,65.80
2023-04-16T13:09:55.741Z,64.95
2023-04-16T13:12:22.365Z,63.90
2023-04-16T13:14:48.900Z,64.53
2023-04-16T13:17:15.543Z,64.61
2023-04-16T13:19:42.085Z,63.66
2023-04-16T13:22:09.483Z,64.35
2023-04-16T13:24:36.205Z,63.94
2023-04-16T13:27:03.116Z,63.30
2023-04-16T13:29:30.001Z,62.10
2023-04-16T13:31:57.567Z,62.13
2023-04-16T13:34:24.222Z,62.28
2023-04-16T13:36:50.811Z,63.88
2023-04-16T13:39:17.625Z,64.83
2023-04-16T13:41:44.271Z,62.29
2023-04-16T13:44:10.990Z,62.38
2023-04-16T13:46:37.582Z,61.92
2023-04-16T13:49:04.177Z,61.87
2023-04-16T13:51:30.779Z,60.51
2023-04-16T13:53:57.280Z,61.83
2023-04-16T13:56:23.988Z,61.75
2023-04-16T13:58:50.741Z,66.22
2023-04-16T14:01:17.490Z,67.59
2023-04-16T14:03:44.525Z,64.57
2023-04-16T14:06:11.188Z,62.12
2023-04-16T14:08:38.351Z,61.99
2023-04-16T14:11:06.476Z,58.69
2023-04-16T14:13:33.285Z,56.02
2023-04-16T14:15:59.931Z,55.75
2023-04-16T14:18:26.595Z,55.37
2023-04-16T14:20:53.175Z,55.90
2023-04-16T14:23:19.840Z,65.83
2023-04-16T14:25:46.442Z,70.22
2023-04-16T14:28:15.482Z,69.54
2023-04-16T14:30:42.384Z,70.66
2023-04-16T14:33:09.292Z,71.20
2023-04-16T14:35:36.124Z,70.48
2023-04-16T14:38:02.982Z,68.66
2023-04-16T14:40:30.039Z,71.11
2023-04-16T14:42:56.728Z,72.86
2023-04-16T14:45:29.033Z,72.78
2023-04-16T14:47:56.021Z,72.62
2023-04-16T14:50:22.646Z,73.16
2023-04-16T14:52:49.234Z,72.64
2023-04-16T14:55:15.839Z,73.54
2023-04-16T14:57:42.489Z,73.11
2023-04-16T15:00:13.490Z,73.82
2023-04-16T15:02:40.519Z,72.78
2023-04-16T15:05:09.850Z,75.53
2023-04-16T15:07:37.036Z,75.56
2023-04-16T15:10:03.950Z,73.78
2023-04-16T15:12:30.528Z,75.56
2023-04-16T15:14:57.209Z,75.15
2023-04-16T15:17:23.992Z,76.21
2023-04-16T15:19:52.187Z,75.48
2023-04-16T15:22:18.886Z,75.51
2023-04-16T15:24:45.942Z,76.35
2023-04-16T15:27:13.984Z,75.06
2023-04-16T15:29:40.581Z,75.53
2023-04-16T15:32:07.223Z,76.66
2023-04-16T15:34:33.827Z,77.46
2023-04-16T15:37:00.453Z,77.22
2023-04-16T15:39:27.100Z,76.33
2023-04-16T15:42:01.251Z,76.55
2023-04-16T15:44:31.073Z,74.46
2023-04-16T15:46:57.733Z,74.52
2023-04-16T15:49:24.824Z,74.63
2023-04-16T15:51:52.033Z,72.49
2023-04-16T15:54:18.873Z,72.41
2023-04-16T15:56:46.634Z,73.64
2023-04-16T15:59:13.701Z,73.96
2023-04-16T16:01:40.917Z,74.34
2023-04-16T16:04:08.296Z,72.91
2023-04-16T16:06:35.828Z,73.06
2023-04-16T16:09:02.422Z,71.45
2023-04-16T16:11:29.045Z,71.57
2023-04-16T16:13:55.595Z,71.10
2023-04-16T16:16:22.164Z,71.42
2023-04-16T16:18:48.929Z,70.65
2023-04-16T16:21:15.515Z,73.21
2023-04-16T16:23:42.067Z,73.30
2023-04-16T16:26:09.398Z,72.14
2023-04-16T16:28:39.173Z,74.21
2023-04-16T16:31:06.951Z,75.34
2023-04-16T16:33:33.582Z,74.21
2023-04-16T16:36:00.314Z,73.65
2023-04-16T16:38:27.244Z,73.27
2023-04-16T16:40:53.864Z,73.40
2023-04-16T16:43:20.768Z,71.52
2023-04-16T16:45:47.386Z,72.39
2023-04-16T16:48:14.053Z,72.15
2023-04-16T16:50:41.694Z,71.00
2023-04-16T16:53:08.269Z,70.64
2023-04-16T16:55:35.688Z,71.72
2023-04-16T16:58:03.036Z,71.28
2023-04-16T17:00:29.594Z,69.96
2023-04-16T17:02:56.545Z,69.50
2023-04-16T17:05:23.288Z,69.47
2023-04-16T17:07:49.844Z,70.84
2023-04-16T17:10:20.840Z,72.69
2023-04-16T17:12:49.063Z,72.68
2023-04-16T17:15:17.558Z,73.92
2023-04-16T17:17:45.944Z,73.76
2023-04-16T17:20:12.665Z,74.50
2023-04-16T17:22:40.429Z,74.31
2023-04-16T17:25:10.585Z,73.19
2023-04-16T17:27:37.243Z,71.00
2023-04-16T17:30:05.542Z,70.74
2023-04-16T17:32:32.952Z,70.52
2023-04-16T17:35:01.208Z,71.60
2023-04-16T17:37:27.900Z,73.12
2023-04-16T17:39:54.521Z,75.91
2023-04-16T17:42:21.153Z,75.85
2023-04-16T17:44:47.880Z,76.44
2023-04-16T17:47:14.449Z,75.65
2023-04-16T17:49:41.238Z,76.44
2023-04-16T17:52:07.869Z,77.22
2023-04-16T17:54:34.476Z,78.51
2023-04-16T17:57:01.918Z,78.26
2023-04-16T17:59:28.557Z,77.60
2023-04-16T18:01:56.176Z,77.34
2023-04-16T18:04:22.946Z,77.01
2023-04-16T18:06:49.657Z,77.92
2023-04-16T18:09:16.275Z,77.70
2023-04-16T18:11:42.831Z,77.13
2023-04-16T18:14:11.587Z,77.82
2023-04-16T18:16:38.653Z,78.48
2023-04-16T18:19:05.570Z,79.20
2023-04-16T18:21:32.157Z,79.67
2023-04-16T18:24:00.886Z,79.01
2023-04-16T18:26:29.878Z,79.70
2023-04-16T18:28:56.969Z,79.16
2023-04-16T18:31:23.649Z,79.43
2023-04-16T18:33:57.549Z,80.58
2023-04-16T18:36:26.801Z,79.47
2023-04-16T18:39:01.669Z,80.20
2023-04-16T18:41:30.069Z,79.38
2023-04-16T18:43:57.114Z,80.45
2023-04-16T18:46:23.820Z,80.90
2023-04-16T18:48:50.535Z,80.93
2023-04-16T18:51:17.163Z,81.86
2023-04-16T18:53:45.440Z,81.71
2023-04-16T18:56:12.409Z,77.98
2023-04-16T18:58:38.983Z,78.56
2023-04-16T19:01:10.811Z,78.00
2023-04-16T19:03:38.048Z,77.70
2023-04-16T19:06:05.016Z,78.04
2023-04-16T19:08:31.639Z,78.72
2023-04-16T19:10:58.271Z,80.40
2023-04-16T19:13:24.862Z,81.61
2023-04-16T19:15:51.415Z,81.64
2023-04-16T19:18:18.006Z,80.95
2023-04-16T19:20:44.674Z,81.32
2023-04-16T19:23:11.778Z,80.85
2023-04-16T19:25:39.547Z,80.72
2023-04-16T19:28:06.093Z,81.11
2023-04-16T19:30:32.697Z,80.73
2023-04-16T19:32:59.305Z,81.13
2023-04-16T19:35:25.981Z,80.40
2023-04-16T19:37:52.796Z,80.74
2023-04-16T19:40:19.453Z,82.14
2023-04-16T19:42:45.967Z,81.77
2023-04-16T19:45:12.542Z,82.34
2023-04-16T19:47:39.170Z,81.40
2023-04-16T19:50:06.590Z,81.12
2023-04-16T19:52:38.758Z,80.56
2023-04-16T19:55:06.771Z,81.05
2023-04-16T19:57:33.477Z,81.48
2023-04-16T20:00:00.398Z,83.08
2023-04-16T20:02:27.616Z,83.16
2023-04-16T20:04:54.307Z,81.54
2023-04-16T20:07:20.911Z,81.88
2023-04-16T20:09:47.422Z,83.64
2023-04-16T20:12:14.471Z,83.89
2023-04-16T20:14:41.904Z,83.26
2023-04-16T20:17:10.160Z,83.16
2023-04-16T20:19:40.124Z,83.69
2023-04-16T20:22:06.641Z,83.37
2023-04-16T20:24:33.258Z,83.56
2023-04-16T20:26:59.783Z,83.61
2023-04-16T20:29:26.285Z,83.12
2023-04-16T20:31:52.957Z,83.94
2023-04-16T20:34:19.612Z,84.00
2023-04-16T20:36:46.206Z,84.40
2023-04-16T20:39:12.925Z,83.67
2023-04-16T20:41:44.032Z,82.89
2023-04-16T20:44:18.144Z,83.13
2023-04-16T20:46:49.413Z,82.27
2023-04-16T20:49:17.699Z,82.25
2023-04-16T20:51:44.342Z,83.39
2023-04-16T20:54:11.100Z,84.02
2023-04-16T20:56:37.637Z,84.33
2023-04-16T20:59:04.167Z,84.34
2023-04-16T21:01:30.844Z,84.89
2023-04-16T21:03:57.715Z,84.32
2023-04-16T21:06:25.375Z,84.15
2023-04-16T21:08:52.039Z,85.21
2023-04-16T21:11:18.658Z,85.30
2023-04-16T21:13:45.212Z,84.19
2023-04-16T21:16:12.481Z,85.39
2023-04-16T21:18:39.260Z,84.32
2023-04-16T21:21:06.106Z,85.38
2023-04-16T21:23:32.703Z,84.82
2023-04-16T21:25:59.227Z,85.56
2023-04-16T21:28:25.930Z,84.81
2023-04-16T21:30:53.245Z,85.04
2023-04-16T21:33:19.800Z,83.67
2023-04-16T21:35:51.624Z,85.25
2023-04-16T21:38:18.613Z,84.76
2023-04-16T21:40:50.928Z,85.67
2023-04-16T21:43:17.943Z,85.85
2023-04-16T21:45:44.516Z,84.28
2023-04-16T21:48:11.326Z,84.25
2023-04-16T21:50:38.336Z,84.27
2023-04-16T21:53:06.713Z,84.56
2023-04-16T21:55:34.816Z,83.46
2023-04-16T21:58:02.082Z,83.33
2023-04-16T22:00:28.777Z,83.93
2023-04-16T22:02:56.504Z,84.16
2023-04-16T22:05:25.805Z,84.64
2023-04-16T22:07:52.859Z,84.93
2023-04-16T22:10:19.616Z,84.73
2023-04-16T22:12:46.605Z,84.45
2023-04-16T22:15:13.863Z,84.64
2023-04-16T22:17:41.157Z,83.92
2023-04-16T22:20:09.391Z,83.32
2023-04-16T22:22:36.148Z,83.28
2023-04-16T22:25:03.459Z,83.70
2023-04-16T22:27:30.100Z,83.89
2023-04-16T22:29:56.793Z,83.88
2023-04-16T22:32:23.509Z,83.18
2023-04-16T22:34:50.127Z,82.47
2023-04-16T22:37:16.620Z,83.97
2023-04-16T22:39:43.202Z,83.97
2023-04-16T22:42:09.749Z,83.59
2023-04-16T22:44:36.960Z,84.61
2023-04-16T22:47:03.596Z,84.26
2023-04-16T22:49:33.221Z,84.63
2023-04-16T22:52:02.867Z,84.10
2023-04-16T22:54:33.255Z,83.96
2023-04-16T22:56:59.950Z,84.31
2023-04-16T22:59:26.558Z,84.15
2023-04-16T23:01:53.308Z,83.97
2023-04-16T23:04:20.832Z,83.14
2023-04-16T23:06:47.377Z,82.73
2023-04-16T23:09:14.217Z,84.10
2023-04-16T23:11:41.041Z,83.78
2023-04-16T23:14:08.388Z,83.41
2023-04-16T23:16:35.064Z,84.26
2023-04-16T23:19:01.680Z,83.34
2023-04-16T23:21:28.224Z,83.13
2023-04-16T23:23:55.688Z,83.59
2023-04-16T23:26:22.176Z,83.05
2023-04-16T23:28:48.766Z,84.78
2023-04-16T23:31:15.490Z,84.58
2023-04-16T23:33:42.064Z,84.70
2023-04-16T23:36:09.099Z,83.85
2023-04-16T23:38:35.571Z,84.02
2023-04-16T23:41:02.120Z,82.87
2023-04-16T23:43:28.666Z,83.65
2023-04-16T23:45:55.864Z,83.24
2023-04-16T23:48:22.449Z,82.72
2023-04-16T23:50:48.986Z,83.61
2023-04-16T23:53:15.729Z,84.98
2023-04-16T23:55:42.273Z,84.91
2023-04-16T23:58:08.780Z,84.97
